sensor_id;sensor_type;location;lat;lon;timestamp;P1;durP1;ratioP1;P2;durP2;ratioP2
33644;SDS011;19986;48.190;16.366;2023-02-28T05:05:14;57.90;;;54.00;;
33644;SDS011;19986;48.190;16.366;2023-02-28T05:07:44;55.28;;;51.47;;
33644;SDS011;19986;48.190;16.366;2023-02-28T05:10:10;57.47;;;53.58;;
33644;SDS011;19986;48.190;16.366;2023-02-28T05:12:36;56.85;;;53.03;;
33644;SDS011;19986;48.190;16.366;2023-02-28T05:15:04;55.92;;;52.10;;
33644;SDS011;19986;48.190;16.366;2023-02-28T05:17:30;60.03;;;55.92;;
33644;SDS011;19986;48.190;16.366;2023-02-28T05:19:56;57.28;;;53.38;;
33644;SDS011;19986;48.190;16.366;2023-02-28T05:22:22;55.45;;;51.78;;
33644;SDS011;19986;48.190;16.366;2023-02-28T05:24:48;57.70;;;53.85;;
33644;SDS011;19986;48.190;16.366;2023-02-28T05:27:14;58.60;;;54.55;;
33644;SDS011;19986;48.190;16.366;2023-02-28T05:29:40;57.50;;;53.83;;
33644;SDS011;19986;48.190;16.366;2023-02-28T05:32:10;58.50;;;54.35;;
33644;SDS011;19986;48.190;16.366;2023-02-28T05:34:37;56.38;;;52.08;;
33644;SDS011;19986;48.190;16.366;2023-02-28T05:37:04;55.53;;;51.95;;
33644;SDS011;19986;48.190;16.366;2023-02-28T05:39:30;53.78;;;50.00;;
33644;SDS011;19986;48.190;16.366;2023-02-28T05:41:56;58.83;;;54.78;;
33644;SDS011;19986;48.190;16.366;2023-02-28T05:44:22;58.65;;;54.75;;
33644;SDS011;19986;48.190;16.366;2023-02-28T05:46:48;56.88;;;52.97;;
33644;SDS011;19986;48.190;16.366;2023-02-28T05:49:14;56.50;;;52.33;;
33644;SDS011;19986;48.190;16.366;2023-02-28T05:51:40;54.95;;;50.90;;
33644;SDS011;19986;48.190;16.366;2023-02-28T05:54:06;58.75;;;54.85;;
33644;SDS011;19986;48.190;16.366;2023-02-28T05:56:32;64.07;;;59.38;;
33644;SDS011;19986;48.190;16.366;2023-02-28T05:58:59;56.78;;;53.00;;
33644;SDS011;19986;48.190;16.366;2023-02-28T06:01:41;56.70;;;52.65;;
33644;SDS011;19986;48.190;16.366;2023-02-28T06:04:16;58.65;;;54.63;;
33644;SDS011;19986;48.190;16.366;2023-02-28T06:06:44;57.78;;;53.38;;
33644;SDS011;19986;48.190;16.366;2023-02-28T06:09:11;58.55;;;54.50;;
33644;SDS011;19986;48.190;16.366;2023-02-28T06:11:37;58.78;;;54.88;;
33644;SDS011;19986;48.190;16.366;2023-02-28T06:14:03;58.17;;;54.35;;
33644;SDS011;19986;48.190;16.366;2023-02-28T06:16:30;59.28;;;55.45;;
33644;SDS011;19986;48.190;16.366;2023-02-28T06:18:58;59.78;;;55.67;;
33644;SDS011;19986;48.190;16.366;2023-02-28T06:21:25;61.97;;;57.72;;
33644;SDS011;19986;48.190;16.366;2023-02-28T06:23:52;57.28;;;52.95;;
33644;SDS011;19986;48.190;16.366;2023-02-28T06:26:19;58.65;;;54.70;;
33644;SDS011;19986;48.190;16.366;2023-02-28T06:28:46;60.00;;;55.83;;
33644;SDS011;19986;48.190;16.366;2023-02-28T06:31:14;57.28;;;53.08;;
33644;SDS011;19986;48.190;16.366;2023-02-28T06:33:40;56.50;;;52.20;;
33644;SDS011;19986;48.190;16.366;2023-02-28T06:36:08;57.13;;;52.88;;
33644;SDS011;19986;48.190;16.366;2023-02-28T06:38:35;57.35;;;53.45;;
33644;SDS011;19986;48.190;16.366;2023-02-28T06:41:02;57.78;;;53.63;;
33644;SDS011;19986;48.190;16.366;2023-02-28T06:43:30;58.60;;;54.40;;
33644;SDS011;19986;48.190;16.366;2023-02-28T06:45:58;58.80;;;54.80;;
33644;SDS011;19986;48.190;16.366;2023-02-28T06:48:26;59.13;;;54.95;;
33644;SDS011;19986;48.190;16.366;2023-02-28T06:51:00;57.55;;;53.50;;
33644;SDS011;19986;48.190;16.366;2023-02-28T06:53:37;57.55;;;53.20;;
33644;SDS011;19986;48.190;16.366;2023-02-28T06:56:07;59.20;;;54.35;;
33644;SDS011;19986;48.190;16.366;2023-02-28T06:58:35;59.13;;;54.95;;
33644;SDS011;19986;48.190;16.366;2023-02-28T07:01:02;57.97;;;53.80;;
33644;SDS011;19986;48.190;16.366;2023-02-28T07:03:29;58.95;;;54.33;;
33644;SDS011;19986;48.190;16.366;2023-02-28T07:05:55;61.10;;;56.85;;
33644;SDS011;19986;48.190;16.366;2023-02-28T07:08:24;59.60;;;55.42;;
33644;SDS011;19986;48.190;16.366;2023-02-28T07:10:54;57.85;;;53.30;;
33644;SDS011;19986;48.190;16.366;2023-02-28T07:13:20;59.42;;;54.90;;
33644;SDS011;19986;48.190;16.366;2023-02-28T07:15:56;62.28;;;57.72;;
33644;SDS011;19986;48.190;16.366;2023-02-28T07:18:24;61.78;;;57.22;;
33644;SDS011;19986;48.190;16.366;2023-02-28T07:20:50;61.63;;;56.88;;
33644;SDS011;19986;48.190;16.366;2023-02-28T07:23:16;61.00;;;56.20;;
33644;SDS011;19986;48.190;16.366;2023-02-28T07:25:42;58.38;;;54.00;;
33644;SDS011;19986;48.190;16.366;2023-02-28T07:28:08;60.58;;;55.90;;
33644;SDS011;19986;48.190;16.366;2023-02-28T07:30:34;59.80;;;55.38;;
33644;SDS011;19986;48.190;16.366;2023-02-28T07:33:00;61.65;;;57.00;;
33644;SDS011;19986;48.190;16.366;2023-02-28T07:35:26;58.40;;;54.28;;
33644;SDS011;19986;48.190;16.366;2023-02-28T07:37:52;60.58;;;55.40;;
33644;SDS011;19986;48.190;16.366;2023-02-28T07:40:18;61.72;;;57.30;;
33644;SDS011;19986;48.190;16.366;2023-02-28T07:42:44;59.67;;;55.35;;
33644;SDS011;19986;48.190;16.366;2023-02-28T07:45:10;59.83;;;55.35;;
33644;SDS011;19986;48.190;16.366;2023-02-28T07:47:40;61.20;;;56.50;;
33644;SDS011;19986;48.190;16.366;2023-02-28T07:50:08;59.15;;;54.75;;
33644;SDS011;19986;48.190;16.366;2023-02-28T07:52:38;60.35;;;55.38;;
33644;SDS011;19986;48.190;16.366;2023-02-28T07:55:06;61.25;;;56.35;;
33644;SDS011;19986;48.190;16.366;2023-02-28T07:57:33;60.97;;;56.58;;
33644;SDS011;19986;48.190;16.366;2023-02-28T07:59:59;61.30;;;56.88;;
33644;SDS011;19986;48.190;16.366;2023-02-28T08:02:24;60.58;;;56.15;;
33644;SDS011;19986;48.190;16.366;2023-02-28T08:04:51;61.28;;;56.33;;
33644;SDS011;19986;48.190;16.366;2023-02-28T08:07:17;58.55;;;54.13;;
33644;SDS011;19986;48.190;16.366;2023-02-28T08:09:44;59.53;;;55.03;;
33644;SDS011;19986;48.190;16.366;2023-02-28T08:12:10;58.55;;;54.38;;
33644;SDS011;19986;48.190;16.366;2023-02-28T08:14:37;60.13;;;55.80;;
33644;SDS011;19986;48.190;16.366;2023-02-28T08:17:03;57.20;;;52.90;;
33644;SDS011;19986;48.190;16.366;2023-02-28T08:19:29;56.95;;;52.95;;
33644;SDS011;19986;48.190;16.366;2023-02-28T08:21:56;60.30;;;56.05;;
33644;SDS011;19986;48.190;16.366;2023-02-28T08:24:22;62.08;;;57.35;;
33644;SDS011;19986;48.190;16.366;2023-02-28T08:26:48;61.15;;;57.00;;
33644;SDS011;19986;48.190;16.366;2023-02-28T08:29:15;59.15;;;54.88;;
33644;SDS011;19986;48.190;16.366;2023-02-28T08:31:41;61.00;;;56.50;;
33644;SDS011;19986;48.190;16.366;2023-02-28T08:34:08;57.25;;;53.25;;
33644;SDS011;19986;48.190;16.366;2023-02-28T08:36:36;56.50;;;52.50;;
33644;SDS011;19986;48.190;16.366;2023-02-28T08:39:03;58.47;;;54.38;;
33644;SDS011;19986;48.190;16.366;2023-02-28T08:41:29;59.13;;;55.13;;
33644;SDS011;19986;48.190;16.366;2023-02-28T08:43:55;59.33;;;55.22;;
33644;SDS011;19986;48.190;16.366;2023-02-28T08:46:23;60.88;;;56.75;;
33644;SDS011;19986;48.190;16.366;2023-02-28T08:48:53;60.10;;;55.83;;
33644;SDS011;19986;48.190;16.366;2023-02-28T08:51:20;61.17;;;56.85;;
33644;SDS011;19986;48.190;16.366;2023-02-28T08:53:52;60.83;;;56.53;;
33644;SDS011;19986;48.190;16.366;2023-02-28T08:56:20;59.50;;;55.55;;
33644;SDS011;19986;48.190;16.366;2023-02-28T08:58:46;58.75;;;54.72;;
33644;SDS011;19986;48.190;16.366;2023-02-28T09:01:20;60.80;;;56.13;;
33644;SDS011;19986;48.190;16.366;2023-02-28T09:03:48;58.08;;;53.88;;
33644;SDS011;19986;48.190;16.366;2023-02-28T09:06:15;57.72;;;53.88;;
33644;SDS011;19986;48.190;16.366;2023-02-28T09:08:43;56.28;;;52.25;;
33644;SDS011;19986;48.190;16.366;2023-02-28T09:11:10;60.17;;;56.28;;
33644;SDS011;19986;48.190;16.366;2023-02-28T09:13:36;59.70;;;55.30;;
33644;SDS011;19986;48.190;16.366;2023-02-28T09:16:04;56.13;;;52.20;;
33644;SDS011;19986;48.190;16.366;2023-02-28T09:18:33;56.70;;;52.78;;
33644;SDS011;19986;48.190;16.366;2023-02-28T09:21:03;57.03;;;52.85;;
33644;SDS011;19986;48.190;16.366;2023-02-28T09:23:30;56.35;;;52.45;;
33644;SDS011;19986;48.190;16.366;2023-02-28T09:25:56;55.97;;;52.28;;
33644;SDS011;19986;48.190;16.366;2023-02-28T09:28:22;55.97;;;52.00;;
33644;SDS011;19986;48.190;16.366;2023-02-28T09:30:50;57.10;;;53.10;;
33644;SDS011;19986;48.190;16.366;2023-02-28T09:33:18;56.15;;;52.25;;
33644;SDS011;19986;48.190;16.366;2023-02-28T09:35:48;58.13;;;54.38;;
33644;SDS011;19986;48.190;16.366;2023-02-28T09:38:14;59.05;;;54.85;;
33644;SDS011;19986;48.190;16.366;2023-02-28T09:43:15;59.03;;;55.15;;
33644;SDS011;19986;48.190;16.366;2023-02-28T09:45:46;57.97;;;54.05;;
33644;SDS011;19986;48.190;16.366;2023-02-28T09:48:25;58.30;;;53.88;;
33644;SDS011;19986;48.190;16.366;2023-02-28T09:54:02;57.22;;;53.08;;
33644;SDS011;19986;48.190;16.366;2023-02-28T09:56:30;57.35;;;53.50;;
33644;SDS011;19986;48.190;16.366;2023-02-28T09:59:10;57.80;;;53.70;;
33644;SDS011;19986;48.190;16.366;2023-02-28T10:11:09;58.55;;;54.45;;
33644;SDS011;19986;48.190;16.366;2023-02-28T10:16:05;60.83;;;56.33;;
33644;SDS011;19986;48.190;16.366;2023-02-28T10:21:20;59.45;;;55.35;;
33644;SDS011;19986;48.190;16.366;2023-02-28T10:23:49;56.42;;;52.13;;
33644;SDS011;19986;48.190;16.366;2023-02-28T10:26:21;58.10;;;54.03;;
33644;SDS011;19986;48.190;16.366;2023-02-28T10:28:52;59.05;;;54.70;;
33644;SDS011;19986;48.190;16.366;2023-02-28T10:31:19;58.13;;;54.25;;
33644;SDS011;19986;48.190;16.366;2023-02-28T10:33:45;60.17;;;55.72;;
33644;SDS011;19986;48.190;16.366;2023-02-28T10:36:18;62.75;;;57.88;;
33644;SDS011;19986;48.190;16.366;2023-02-28T10:38:46;58.45;;;54.03;;
33644;SDS011;19986;48.190;16.366;2023-02-28T10:41:16;57.40;;;53.50;;
33644;SDS011;19986;48.190;16.366;2023-02-28T10:43:53;57.47;;;53.42;;
33644;SDS011;19986;48.190;16.366;2023-02-28T10:46:43;59.70;;;55.53;;
33644;SDS011;19986;48.190;16.366;2023-02-28T10:49:14;56.55;;;52.40;;
33644;SDS011;19986;48.190;16.366;2023-02-28T10:51:48;58.20;;;53.65;;
33644;SDS011;19986;48.190;16.366;2023-02-28T10:54:23;58.33;;;54.20;;
33644;SDS011;19986;48.190;16.366;2023-02-28T10:59:53;56.92;;;52.92;;
33644;SDS011;19986;48.190;16.366;2023-02-28T11:02:42;58.53;;;54.38;;
33644;SDS011;19986;48.190;16.366;2023-02-28T11:10:56;58.30;;;54.38;;
33644;SDS011;19986;48.190;16.366;2023-02-28T11:13:25;56.05;;;52.15;;
33644;SDS011;19986;48.190;16.366;2023-02-28T11:16:00;60.78;;;56.08;;
33644;SDS011;19986;48.190;16.366;2023-02-28T11:21:07;56.30;;;52.33;;
33644;SDS011;19986;48.190;16.366;2023-02-28T11:23:35;57.25;;;53.28;;
33644;SDS011;19986;48.190;16.366;2023-02-28T11:26:05;56.65;;;52.85;;
33644;SDS011;19986;48.190;16.366;2023-02-28T11:28:35;55.10;;;51.33;;
33644;SDS011;19986;48.190;16.366;2023-02-28T11:38:55;57.50;;;53.60;;
33644;SDS011;19986;48.190;16.366;2023-02-28T11:44:46;54.65;;;50.97;;
33644;SDS011;19986;48.190;16.366;2023-02-28T11:52:44;56.30;;;52.50;;
33644;SDS011;19986;48.190;16.366;2023-02-28T12:12:08;55.85;;;52.15;;
33644;SDS011;19986;48.190;16.366;2023-02-28T12:28:42;54.63;;;50.95;;
33644;SDS011;19986;48.190;16.366;2023-02-28T12:31:22;53.70;;;50.05;;
33644;SDS011;19986;48.190;16.366;2023-02-28T12:33:52;56.45;;;52.55;;
33644;SDS011;19986;48.190;16.366;2023-02-28T12:36:21;56.60;;;52.80;;
33644;SDS011;19986;48.190;16.366;2023-02-28T12:38:51;54.08;;;50.40;;
33644;SDS011;19986;48.190;16.366;2023-02-28T12:44:23;56.20;;;52.55;;
33644;SDS011;19986;48.190;16.366;2023-02-28T12:46:58;54.95;;;51.28;;
33644;SDS011;19986;48.190;16.366;2023-02-28T12:49:34;54.30;;;50.88;;
33644;SDS011;19986;48.190;16.366;2023-02-28T12:52:26;53.58;;;49.97;;
33644;SDS011;19986;48.190;16.366;2023-02-28T12:57:59;53.95;;;50.33;;
33644;SDS011;19986;48.190;16.366;2023-02-28T13:00:29;54.70;;;51.10;;
33644;SDS011;19986;48.190;16.366;2023-02-28T13:11:24;53.92;;;50.83;;
33644;SDS011;19986;48.190;16.366;2023-02-28T13:14:03;51.42;;;48.13;;
33644;SDS011;19986;48.190;16.366;2023-02-28T13:19:35;50.17;;;47.05;;
33644;SDS011;19986;48.190;16.366;2023-02-28T13:22:04;53.58;;;50.13;;
33644;SDS011;19986;48.190;16.366;2023-02-28T13:24:47;52.58;;;49.42;;
33644;SDS011;19986;48.190;16.366;2023-02-28T13:29:44;51.45;;;48.33;;
33644;SDS011;19986;48.190;16.366;2023-02-28T13:34:39;52.10;;;48.83;;
33644;SDS011;19986;48.190;16.366;2023-02-28T13:39:55;51.17;;;48.03;;
33644;SDS011;19986;48.190;16.366;2023-02-28T13:47:41;51.92;;;48.75;;
33644;SDS011;19986;48.190;16.366;2023-02-28T14:04:02;53.35;;;50.17;;
33644;SDS011;19986;48.190;16.366;2023-02-28T14:06:48;52.28;;;49.08;;
33644;SDS011;19986;48.190;16.366;2023-02-28T14:09:21;54.17;;;50.97;;
33644;SDS011;19986;48.190;16.366;2023-02-28T14:15:28;53.35;;;49.88;;
33644;SDS011;19986;48.190;16.366;2023-02-28T14:17:56;51.28;;;47.88;;
33644;SDS011;19986;48.190;16.366;2023-02-28T14:20:26;54.60;;;50.85;;
33644;SDS011;19986;48.190;16.366;2023-02-28T14:23:02;53.67;;;50.47;;
33644;SDS011;19986;48.190;16.366;2023-02-28T14:26:14;56.25;;;52.47;;
33644;SDS011;19986;48.190;16.366;2023-02-28T14:32:01;55.13;;;51.60;;
33644;SDS011;19986;48.190;16.366;2023-02-28T14:34:55;53.22;;;49.85;;
33644;SDS011;19986;48.190;16.366;2023-02-28T14:37:37;55.65;;;51.83;;
33644;SDS011;19986;48.190;16.366;2023-02-28T14:40:17;54.03;;;50.80;;
33644;SDS011;19986;48.190;16.366;2023-02-28T14:42:56;52.13;;;48.75;;
33644;SDS011;19986;48.190;16.366;2023-02-28T14:45:24;54.03;;;50.53;;
33644;SDS011;19986;48.190;16.366;2023-02-28T14:47:56;52.80;;;49.30;;
33644;SDS011;19986;48.190;16.366;2023-02-28T14:50:26;52.80;;;49.40;;
33644;SDS011;19986;48.190;16.366;2023-02-28T14:52:56;54.67;;;51.20;;
33644;SDS011;19986;48.190;16.366;2023-02-28T14:55:33;53.00;;;49.42;;
33644;SDS011;19986;48.190;16.366;2023-02-28T14:58:04;53.42;;;50.03;;
33644;SDS011;19986;48.190;16.366;2023-02-28T15:00:32;53.25;;;49.95;;
33644;SDS011;19986;48.190;16.366;2023-02-28T15:03:19;54.97;;;51.60;;
33644;SDS011;19986;48.190;16.366;2023-02-28T15:06:14;54.38;;;51.03;;
33644;SDS011;19986;48.190;16.366;2023-02-28T15:08:44;54.60;;;51.05;;
33644;SDS011;19986;48.190;16.366;2023-02-28T15:11:14;54.45;;;50.95;;
33644;SDS011;19986;48.190;16.366;2023-02-28T15:13:54;53.28;;;49.58;;
33644;SDS011;19986;48.190;16.366;2023-02-28T15:16:36;56.38;;;52.83;;
33644;SDS011;19986;48.190;16.366;2023-02-28T15:19:12;55.50;;;51.80;;
33644;SDS011;19986;48.190;16.366;2023-02-28T15:22:01;55.42;;;51.72;;
33644;SDS011;19986;48.190;16.366;2023-02-28T15:27:14;55.15;;;51.10;;
33644;SDS011;19986;48.190;16.366;2023-02-28T15:29:59;53.40;;;49.88;;
33644;SDS011;19986;48.190;16.366;2023-02-28T15:32:34;54.47;;;50.88;;
33644;SDS011;19986;48.190;16.366;2023-02-28T15:37:54;52.33;;;48.90;;
33644;SDS011;19986;48.190;16.366;2023-02-28T15:40:29;53.55;;;50.15;;
33644;SDS011;19986;48.190;16.366;2023-02-28T15:43:12;57.00;;;53.30;;
33644;SDS011;19986;48.190;16.366;2023-02-28T15:45:44;56.42;;;52.67;;
33644;SDS011;19986;48.190;16.366;2023-02-28T15:48:22;54.40;;;50.90;;
33644;SDS011;19986;48.190;16.366;2023-02-28T15:50:54;55.22;;;51.90;;
33644;SDS011;19986;48.190;16.366;2023-02-28T15:53:43;53.78;;;50.28;;
33644;SDS011;19986;48.190;16.366;2023-02-28T15:56:35;56.35;;;52.60;;
33644;SDS011;19986;48.190;16.366;2023-02-28T15:59:14;53.88;;;50.58;;
33644;SDS011;19986;48.190;16.366;2023-02-28T16:01:43;55.75;;;52.00;;
33644;SDS011;19986;48.190;16.366;2023-02-28T16:04:16;52.03;;;48.53;;
33644;SDS011;19986;48.190;16.366;2023-02-28T16:07:03;53.50;;;49.70;;
33644;SDS011;19986;48.190;16.366;2023-02-28T16:09:31;54.92;;;51.13;;
33644;SDS011;19986;48.190;16.366;2023-02-28T16:12:00;57.05;;;53.28;;
33644;SDS011;19986;48.190;16.366;2023-02-28T16:14:28;55.50;;;52.15;;
33644;SDS011;19986;48.190;16.366;2023-02-28T16:16:56;53.92;;;50.05;;
33644;SDS011;19986;48.190;16.366;2023-02-28T16:19:36;54.67;;;50.97;;
33644;SDS011;19986;48.190;16.366;2023-02-28T16:22:02;55.60;;;52.20;;
33644;SDS011;19986;48.190;16.366;2023-02-28T16:24:28;54.97;;;51.50;;
33644;SDS011;19986;48.190;16.366;2023-02-28T16:26:54;55.50;;;51.92;;
33644;SDS011;19986;48.190;16.366;2023-02-28T16:31:52;54.05;;;50.53;;
33644;SDS011;19986;48.190;16.366;2023-02-28T16:34:19;54.70;;;51.30;;
33644;SDS011;19986;48.190;16.366;2023-02-28T16:36:46;54.25;;;50.80;;
33644;SDS011;19986;48.190;16.366;2023-02-28T16:39:12;55.53;;;52.08;;
33644;SDS011;19986;48.190;16.366;2023-02-28T16:41:39;54.30;;;50.95;;
33644;SDS011;19986;48.190;16.366;2023-02-28T16:44:10;56.45;;;52.65;;
33644;SDS011;19986;48.190;16.366;2023-02-28T16:46:39;55.55;;;52.00;;
33644;SDS011;19986;48.190;16.366;2023-02-28T16:49:09;55.78;;;52.35;;
33644;SDS011;19986;48.190;16.366;2023-02-28T16:51:36;56.92;;;53.13;;
33644;SDS011;19986;48.190;16.366;2023-02-28T16:54:02;57.72;;;53.95;;
33644;SDS011;19986;48.190;16.366;2023-02-28T16:56:29;55.85;;;51.97;;
33644;SDS011;19986;48.190;16.366;2023-02-28T16:58:55;56.47;;;52.72;;
33644;SDS011;19986;48.190;16.366;2023-02-28T17:01:25;57.83;;;53.95;;
33644;SDS011;19986;48.190;16.366;2023-02-28T17:03:52;53.30;;;49.70;;
33644;SDS011;19986;48.190;16.366;2023-02-28T17:06:20;55.10;;;51.42;;
33644;SDS011;19986;48.190;16.366;2023-02-28T17:08:50;55.58;;;51.75;;
33644;SDS011;19986;48.190;16.366;2023-02-28T17:11:17;55.95;;;51.95;;
33644;SDS011;19986;48.190;16.366;2023-02-28T17:13:44;55.97;;;52.50;;
33644;SDS011;19986;48.190;16.366;2023-02-28T17:18:47;54.03;;;50.30;;
33644;SDS011;19986;48.190;16.366;2023-02-28T17:21:17;56.47;;;52.63;;
33644;SDS011;19986;48.190;16.366;2023-02-28T17:23:43;56.22;;;52.30;;
33644;SDS011;19986;48.190;16.366;2023-02-28T17:26:11;58.47;;;54.45;;
33644;SDS011;19986;48.190;16.366;2023-02-28T17:28:40;58.58;;;54.40;;
33644;SDS011;19986;48.190;16.366;2023-02-28T17:31:07;62.45;;;57.83;;
33644;SDS011;19986;48.190;16.366;2023-02-28T17:33:33;58.92;;;54.80;;
33644;SDS011;19986;48.190;16.366;2023-02-28T17:35:59;55.97;;;52.13;;
33644;SDS011;19986;48.190;16.366;2023-02-28T17:38:25;58.35;;;53.70;;
33644;SDS011;19986;48.190;16.366;2023-02-28T17:40:52;56.90;;;52.13;;
33644;SDS011;19986;48.190;16.366;2023-02-28T17:43:23;57.38;;;53.42;;
33644;SDS011;19986;48.190;16.366;2023-02-28T17:45:50;59.00;;;54.80;;
33644;SDS011;19986;48.190;16.366;2023-02-28T17:48:16;54.90;;;50.78;;
33644;SDS011;19986;48.190;16.366;2023-02-28T17:50:42;59.15;;;55.08;;
33644;SDS011;19986;48.190;16.366;2023-02-28T17:53:08;63.78;;;59.25;;
33644;SDS011;19986;48.190;16.366;2023-02-28T17:55:35;65.03;;;59.72;;
33644;SDS011;19986;48.190;16.366;2023-02-28T17:58:01;55.80;;;51.65;;
33644;SDS011;19986;48.190;16.366;2023-02-28T18:00:29;56.25;;;52.22;;
33644;SDS011;19986;48.190;16.366;2023-02-28T18:02:55;58.95;;;54.75;;
33644;SDS011;19986;48.190;16.366;2023-02-28T18:05:21;62.08;;;57.22;;
33644;SDS011;19986;48.190;16.366;2023-02-28T18:07:47;62.83;;;58.22;;
33644;SDS011;19986;48.190;16.366;2023-02-28T18:10:17;58.50;;;54.15;;
33644;SDS011;19986;48.190;16.366;2023-02-28T18:12:46;59.33;;;55.08;;
33644;SDS011;19986;48.190;16.366;2023-02-28T18:15:14;60.80;;;56.53;;
33644;SDS011;19986;48.190;16.366;2023-02-28T18:17:41;59.15;;;55.22;;
33644;SDS011;19986;48.190;16.366;2023-02-28T18:20:08;56.95;;;52.97;;
33644;SDS011;19986;48.190;16.366;2023-02-28T18:22:36;57.90;;;53.90;;
33644;SDS011;19986;48.190;16.366;2023-02-28T18:25:04;56.50;;;52.63;;
33644;SDS011;19986;48.190;16.366;2023-02-28T18:27:32;57.15;;;52.90;;
33644;SDS011;19986;48.190;16.366;2023-02-28T18:29:59;61.80;;;57.55;;
33644;SDS011;19986;48.190;16.366;2023-02-28T18:32:27;57.60;;;53.50;;
33644;SDS011;19986;48.190;16.366;2023-02-28T18:34:54;55.30;;;51.45;;
33644;SDS011;19986;48.190;16.366;2023-02-28T18:37:20;61.75;;;57.28;;
33644;SDS011;19986;48.190;16.366;2023-02-28T18:39:47;56.53;;;52.50;;
33644;SDS011;19986;48.190;16.366;2023-02-28T18:42:13;59.17;;;54.95;;
33644;SDS011;19986;48.190;16.366;2023-02-28T18:44:39;57.95;;;53.65;;
33644;SDS011;19986;48.190;16.366;2023-02-28T18:47:06;58.25;;;54.55;;
33644;SDS011;19986;48.190;16.366;2023-02-28T18:49:32;58.85;;;54.85;;
33644;SDS011;19986;48.190;16.366;2023-02-28T18:52:00;57.15;;;53.08;;
33644;SDS011;19986;48.190;16.366;2023-02-28T18:54:30;57.92;;;53.90;;
33644;SDS011;19986;48.190;16.366;2023-02-28T18:56:56;56.28;;;52.47;;
33644;SDS011;19986;48.190;16.366;2023-02-28T18:59:22;59.38;;;55.08;;
33644;SDS011;19986;48.190;16.366;2023-02-28T19:01:49;59.95;;;55.83;;
33644;SDS011;19986;48.190;16.366;2023-02-28T19:04:15;58.63;;;54.72;;
33644;SDS011;19986;48.190;16.366;2023-02-28T19:06:41;57.53;;;53.53;;
33644;SDS011;19986;48.190;16.366;2023-02-28T19:09:09;58.00;;;53.83;;
33644;SDS011;19986;48.190;16.366;2023-02-28T19:11:35;59.05;;;54.83;;
33644;SDS011;19986;48.190;16.366;2023-02-28T19:14:02;56.40;;;52.70;;
33644;SDS011;19986;48.190;16.366;2023-02-28T19:16:28;59.95;;;55.78;;
33644;SDS011;19986;48.190;16.366;2023-02-28T19:18:54;62.50;;;58.10;;
33644;SDS011;19986;48.190;16.366;2023-02-28T19:21:22;59.63;;;55.53;;
33644;SDS011;19986;48.190;16.366;2023-02-28T19:23:49;59.88;;;55.75;;
33644;SDS011;19986;48.190;16.366;2023-02-28T19:26:30;56.10;;;52.40;;
33644;SDS011;19986;48.190;16.366;2023-02-28T19:28:56;54.97;;;51.17;;
33644;SDS011;19986;48.190;16.366;2023-02-28T19:31:23;58.50;;;54.35;;
33644;SDS011;19986;48.190;16.366;2023-02-28T19:33:50;56.08;;;52.22;;
33644;SDS011;19986;48.190;16.366;2023-02-28T19:36:17;55.58;;;51.67;;
33644;SDS011;19986;48.190;16.366;2023-02-28T19:38:43;57.72;;;53.97;;
33644;SDS011;19986;48.190;16.366;2023-02-28T19:41:10;57.17;;;53.38;;
33644;SDS011;19986;48.190;16.366;2023-02-28T19:43:40;58.17;;;54.05;;
33644;SDS011;19986;48.190;16.366;2023-02-28T19:46:07;62.25;;;57.25;;
33644;SDS011;19986;48.190;16.366;2023-02-28T19:48:33;61.65;;;56.17;;
33644;SDS011;19986;48.190;16.366;2023-02-28T19:51:04;66.25;;;61.15;;
33644;SDS011;19986;48.190;16.366;2023-02-28T19:53:33;57.08;;;53.00;;
33644;SDS011;19986;48.190;16.366;2023-02-28T19:56:01;57.92;;;53.53;;
33644;SDS011;19986;48.190;16.366;2023-02-28T19:58:28;64.00;;;58.45;;
33644;SDS011;19986;48.190;16.366;2023-02-28T20:00:55;58.67;;;54.45;;
33644;SDS011;19986;48.190;16.366;2023-02-28T20:03:25;66.93;;;61.38;;
33644;SDS011;19986;48.190;16.366;2023-02-28T20:05:58;67.63;;;62.15;;
33644;SDS011;19986;48.190;16.366;2023-02-28T20:08:28;59.72;;;55.22;;
33644;SDS011;19986;48.190;16.366;2023-02-28T20:11:02;64.75;;;59.95;;
33644;SDS011;19986;48.190;16.366;2023-02-28T20:13:29;56.17;;;51.97;;
33644;SDS011;19986;48.190;16.366;2023-02-28T20:16:02;60.85;;;56.33;;
33644;SDS011;19986;48.190;16.366;2023-02-28T20:18:31;58.78;;;54.25;;
33644;SDS011;19986;48.190;16.366;2023-02-28T20:20:58;58.15;;;53.60;;
33644;SDS011;19986;48.190;16.366;2023-02-28T20:23:26;58.10;;;54.08;;
33644;SDS011;19986;48.190;16.366;2023-02-28T20:25:56;54.70;;;50.42;;
33644;SDS011;19986;48.190;16.366;2023-02-28T20:28:24;61.33;;;56.58;;
33644;SDS011;19986;48.190;16.366;2023-02-28T20:30:50;60.15;;;55.55;;
33644;SDS011;19986;48.190;16.366;2023-02-28T20:33:17;60.83;;;56.38;;
33644;SDS011;19986;48.190;16.366;2023-02-28T20:35:44;61.72;;;57.25;;
33644;SDS011;19986;48.190;16.366;2023-02-28T20:38:11;60.90;;;56.25;;
33644;SDS011;19986;48.190;16.366;2023-02-28T20:40:37;64.47;;;59.67;;
33644;SDS011;19986;48.190;16.366;2023-02-28T20:43:04;62.35;;;57.95;;
33644;SDS011;19986;48.190;16.366;2023-02-28T20:45:31;61.95;;;57.33;;
33644;SDS011;19986;48.190;16.366;2023-02-28T20:47:57;59.75;;;54.88;;
33644;SDS011;19986;48.190;16.366;2023-02-28T20:50:23;59.67;;;55.42;;
33644;SDS011;19986;48.190;16.366;2023-02-28T20:52:49;61.53;;;57.10;;
33644;SDS011;19986;48.190;16.366;2023-02-28T20:55:16;62.17;;;57.45;;
33644;SDS011;19986;48.190;16.366;2023-02-28T20:57:42;61.03;;;56.40;;
